Time;durP1;ratioP1;P1;durP2;ratioP2;P2;SDS_P1;SDS_P2;PMS_P1;PMS_P2;Temp;Humidity;BMP_temperature;BMP_pressure;BME280_temperature;BME280_humidity;BME280_pressure;Samples;Min_cycle;Max_cycle;Signal;HPM_P1;HPM_P2
2024/03/19 00:00:22;;;;;;;11.4;6;;;;;;;2.76;76.07;98983.333333333;;;;
2024/03/19 00:11:22;;;;;;;11.4;6.6;;;;;;;2.73;76.41;98985;;;;
2024/03/19 00:22:22;;;;;;;11.4;6.6;;;;;;;2.72;76.81;98980;;;;
2024/03/19 00:33:21;;;;;;;11.4;6.6;;;;;;;2.72;76.91;98980;;;;
2024/03/19 00:44:22;;;;;;;11.6;6.3;;;;;;;2.75;77.03;98980;;;;
2024/03/19 00:55:21;;;;;;;11.6;6.3;;;;;;;2.78;76.98;98976.666666667;;;;
2024/03/19 01:05:21;;;;;;;11.6;6.3;;;;;;;2.8;76.93;98978.333333333;;;;
2024/03/19 01:15:21;;;;;;;13.5;7.2;;;;;;;2.85;76.87;98976.666666667;;;;
2024/03/19 01:25:21;;;;;;;13.5;7.2;;;;;;;2.79;76.55;98985;;;;
2024/03/19 01:36:21;;;;;;;13.5;7.2;;;;;;;2.77;76.74;98981.666666667;;;;
2024/03/19 01:46:21;;;;;;;11.6;5.4;;;;;;;2.72;77.33;98980;;;;
2024/03/19 01:56:21;;;;;;;11.6;5.4;;;;;;;2.62;77.67;98978.333333333;;;;
2024/03/19 02:07:21;;;;;;;11.6;5.4;;;;;;;2.55;78.07;98978.333333333;;;;
2024/03/19 02:18:21;;;;;;;12.4;6.6;;;;;;;2.56;77.99;98980;;;;
2024/03/19 02:28:21;;;;;;;12.4;6.6;;;;;;;2.48;78.49;98980;;;;
2024/03/19 02:38:24;;;;;;;14.6;7.3;;;;;;;2.46;78.88;98985;;;;
2024/03/19 02:49:21;;;;;;;14.6;7.3;;;;;;;2.35;79.07;98990;;;;
2024/03/19 03:00:21;;;;;;;14.6;7.3;;;;;;;2.31;79.29;99006.666666667;;;;
2024/03/19 03:11:21;;;;;;;18.3;8.6;;;;;;;2.33;79.52;99008.333333333;;;;
2024/03/19 03:21:22;;;;;;;18.3;8.6;;;;;;;2.25;79.77;99010;;;;
2024/03/19 03:31:21;;;;;;;18.3;8.6;;;;;;;2.15;80.16;99018.333333333;;;;
2024/03/19 03:42:21;;;;;;;19.2;8.7;;;;;;;2.21;80.45;99026.666666667;;;;
2024/03/19 03:53:22;;;;;;;19.2;8.7;;;;;;;2.16;80.61;99033.333333333;;;;
2024/03/19 04:04:21;;;;;;;19.2;8.7;;;;;;;2.12;80.75;99038.333333333;;;;
2024/03/19 04:15:21;;;;;;;19;9;;;;;;;2.24;80.53;99048.333333333;;;;
2024/03/19 04:26:21;;;;;;;19;9;;;;;;;2.13;80.92;99056.666666667;;;;
2024/03/19 04:36:22;;;;;;;19;9;;;;;;;2.13;80.93;99055;;;;
2024/03/19 04:47:21;;;;;;;19;10;;;;;;;2.2;80.83;99066.666666667;;;;
2024/03/19 04:58:22;;;;;;;19;10;;;;;;;2.17;80.9;99081.666666667;;;;
2024/03/19 05:08:21;;;;;;;17.3;10.4;;;;;;;2.15;81.27;99088.333333333;;;;
2024/03/19 05:19:21;;;;;;;17.3;10.4;;;;;;;1.98;82.26;99093.333333333;;;;
2024/03/19 05:29:22;;;;;;;17.3;10.4;;;;;;;1.98;82.44;99103.333333333;;;;
2024/03/19 05:40:21;;;;;;;21;11.1;;;;;;;2.09;82.37;99113.333333333;;;;
2024/03/19 05:51:21;;;;;;;21;11.1;;;;;;;2.4;82.09;99125;;;;
2024/03/19 06:01:22;;;;;;;21;11.1;;;;;;;2.79;81.62;99135;;;;
2024/03/19 06:11:21;;;;;;;22.5;11.2;;;;;;;3.01;80.74;99143.333333333;;;;
2024/03/19 06:22:21;;;;;;;22.5;11.2;;;;;;;3.15;79.92;99143.333333333;;;;
2024/03/19 06:33:21;;;;;;;22.5;11.2;;;;;;;3.45;79.13;99150;;;;
2024/03/19 06:43:21;;;;;;;19.2;10;;;;;;;3.6;78.55;99153.333333333;;;;
2024/03/19 06:54:21;;;;;;;19.2;10;;;;;;;3.58;77.63;99168.333333333;;;;
2024/03/19 07:04:21;;;;;;;19.2;10;;;;;;;3.51;76.74;99180;;;;
2024/03/19 07:15:21;;;;;;;14.4;8.8;;;;;;;3.63;75.03;99188.333333333;;;;
2024/03/19 07:25:22;;;;;;;14.4;8.8;;;;;;;3.85;73.72;99193.333333333;;;;
2024/03/19 07:36:21;;;;;;;14.4;8.8;;;;;;;3.65;72.25;99210;;;;
2024/03/19 07:47:21;;;;;;;11.2;6.1;;;;;;;4.42;71.15;99215;;;;
2024/03/19 07:57:22;;;;;;;11.2;6.1;;;;;;;5.38;68.53;99220;;;;
2024/03/19 08:08:21;;;;;;;10;5.2;;;;;;;5.4;65.26;99228.333333333;;;;
2024/03/19 08:18:21;;;;;;;10;5.2;;;;;;;4.73;64.09;99231.666666667;;;;
2024/03/19 08:28:21;;;;;;;10;5.2;;;;;;;4.69;67.5;99240;;;;
2024/03/19 08:38:21;;;;;;;10.2;5.3;;;;;;;5.39;65.12;99231.666666667;;;;
2024/03/19 08:49:21;;;;;;;10.2;5.3;;;;;;;6.12;64.83;99221.666666667;;;;
2024/03/19 09:00:21;;;;;;;10.2;5.3;;;;;;;6.52;58.94;99231.666666667;;;;
2024/03/19 09:10:21;;;;;;;9;4.2;;;;;;;6.64;56.06;99235;;;;
2024/03/19 09:20:21;;;;;;;9;4.2;;;;;;;6.23;55.89;99238.333333333;;;;
2024/03/19 09:30:21;;;;;;;9;4.2;;;;;;;5.97;57.61;99238.333333333;;;;
2024/03/19 09:40:21;;;;;;;8.4;3.6;;;;;;;6.65;56.86;99243.333333333;;;;
2024/03/19 09:51:21;;;;;;;8.4;3.6;;;;;;;7.1;54.56;99238.333333333;;;;
2024/03/19 10:01:21;;;;;;;8.4;3.6;;;;;;;7.14;53.35;99238.333333333;;;;
2024/03/19 10:12:23;;;;;;;6.4;3.9;;;;;;;7.24;52.89;99238.333333333;;;;
2024/03/19 10:23:21;;;;;;;6.4;3.9;;;;;;;7.1;50.08;99240;;;;
2024/03/19 10:34:23;;;;;;;6.4;3.9;;;;;;;7.9;49.37;99238.333333333;;;;
2024/03/19 10:44:22;;;;;;;5;2.5;;;;;;;8.13;48.02;99233.333333333;;;;
2024/03/19 10:55:21;;;;;;;5;2.5;;;;;;;8.48;47.02;99241.666666667;;;;
2024/03/19 11:05:21;;;;;;;5;2.5;;;;;;;8.03;47.53;99238.333333333;;;;
2024/03/19 11:15:22;;;;;;;5.2;2.8;;;;;;;8.84;48.5;99241.666666667;;;;
2024/03/19 11:25:22;;;;;;;5.2;2.8;;;;;;;8.37;47.81;99243.333333333;;;;
2024/03/19 11:35:22;;;;;;;5.2;2.8;;;;;;;8.02;49.49;99238.333333333;;;;
2024/03/19 11:46:22;;;;;;;5.4;2.9;;;;;;;8.52;46.34;99233.333333333;;;;
2024/03/19 11:56:22;;;;;;;5.4;2.9;;;;;;;8.73;50.58;99226.666666667;;;;
2024/03/19 12:07:21;;;;;;;6.2;2.9;;;;;;;8.97;46.32;99226.666666667;;;;
2024/03/19 12:17:22;;;;;;;6.2;2.9;;;;;;;8.47;46.46;99225;;;;
2024/03/19 12:27:22;;;;;;;6.2;2.9;;;;;;;8.57;45.57;99215;;;;
2024/03/19 12:37:22;;;;;;;6;2.6;;;;;;;8.62;46.84;99201.666666667;;;;
2024/03/19 12:48:22;;;;;;;6;2.6;;;;;;;8.76;45.33;99200;;;;
2024/03/19 12:59:22;;;;;;;6;2.6;;;;;;;8.75;48.35;99188.333333333;;;;
2024/03/19 13:10:22;;;;;;;4.9;2.6;;;;;;;9.07;45.86;99193.333333333;;;;
2024/03/19 13:21:22;;;;;;;4.9;2.6;;;;;;;8.99;43.31;99180;;;;
2024/03/19 13:31:22;;;;;;;4.9;2.6;;;;;;;9.17;46.75;99170;;;;
2024/03/19 13:42:26;;;;;;;5.6;3.1;;;;;;;9.15;45.06;99173.333333333;;;;
2024/03/19 13:52:22;;;;;;;5.6;3.1;;;;;;;9.07;44.76;99163.333333333;;;;
2024/03/19 14:03:22;;;;;;;5.6;3.1;;;;;;;8.99;45.62;99160;;;;
2024/03/19 14:13:22;;;;;;;6.1;3.1;;;;;;;9.51;44.99;99166.666666667;;;;
2024/03/19 14:23:22;;;;;;;6.1;3.1;;;;;;;9.58;45.11;99156.666666667;;;;
2024/03/19 14:34:22;;;;;;;6.1;3.1;;;;;;;9.51;44.65;99170;;;;
2024/03/19 14:45:22;;;;;;;6.8;3.2;;;;;;;9.41;47.03;99170;;;;
2024/03/19 14:55:22;;;;;;;6.8;3.2;;;;;;;9.47;48.22;99171.666666667;;;;
2024/03/19 15:05:22;;;;;;;6.8;3.2;;;;;;;9.28;47.73;99171.666666667;;;;
2024/03/19 15:16:22;;;;;;;7.6;3.8;;;;;;;9.49;48.82;99163.333333333;;;;
2024/03/19 15:26:22;;;;;;;7.6;3.8;;;;;;;9.52;48.47;99156.666666667;;;;
2024/03/19 15:37:22;;;;;;;9.8;4.7;;;;;;;10.43;46.59;99178.333333333;;;;
2024/03/19 15:48:22;;;;;;;9.8;4.7;;;;;;;11.52;42.77;99188.333333333;;;;
2024/03/19 15:59:22;;;;;;;9.8;4.7;;;;;;;12.35;42.07;99200;;;;
2024/03/19 16:10:22;;;;;;;9.7;6.3;;;;;;;12.7;41.06;99206.666666667;;;;
2024/03/19 16:20:22;;;;;;;9.7;6.3;;;;;;;11.96;41.55;99210;;;;
2024/03/19 16:31:22;;;;;;;9.7;6.3;;;;;;;10.39;45.19;99218.333333333;;;;
2024/03/19 16:41:22;;;;;;;10;6.3;;;;;;;9.84;45.79;99218.333333333;;;;
2024/03/19 16:52:22;;;;;;;10;6.3;;;;;;;8.25;49.79;99235;;;;
2024/03/19 17:03:22;;;;;;;10;6.3;;;;;;;7.27;53.55;99250;;;;
2024/03/19 17:14:23;;;;;;;12.7;5.3;;;;;;;6.5;55.54;99268.333333333;;;;
2024/03/19 17:24:22;;;;;;;12.7;5.3;;;;;;;5.81;57.37;99273.333333333;;;;
2024/03/19 17:35:22;;;;;;;12.7;5.3;;;;;;;5.1;59.25;99288.333333333;;;;
2024/03/19 17:46:22;;;;;;;10.9;6.2;;;;;;;4.45;60.74;99300;;;;
2024/03/19 17:56:22;;;;;;;10.9;6.2;;;;;;;4;63.03;99306.666666667;;;;
2024/03/19 18:06:22;;;;;;;11.1;7.1;;;;;;;3.65;67.24;99315;;;;
2024/03/19 18:17:22;;;;;;;11.1;7.1;;;;;;;3.26;67.62;99321.666666667;;;;
2024/03/19 18:28:23;;;;;;;11.1;7.1;;;;;;;2.99;70.38;99330;;;;
2024/03/19 18:38:22;;;;;;;33.6;17.9;;;;;;;2.83;70.93;99343.333333333;;;;
2024/03/19 18:49:22;;;;;;;33.6;17.9;;;;;;;2.76;71.87;99348.333333333;;;;
2024/03/19 19:00:22;;;;;;;33.6;17.9;;;;;;;2.51;71.08;99358.333333333;;;;
2024/03/19 19:11:22;;;;;;;34.9;17.8;;;;;;;2.32;72.41;99366.666666667;;;;
2024/03/19 19:21:22;;;;;;;34.9;17.8;;;;;;;2.18;72.83;99375;;;;
2024/03/19 19:31:22;;;;;;;34.9;17.8;;;;;;;2.07;73.69;99378.333333333;;;;
2024/03/19 19:41:22;;;;;;;20.1;10.5;;;;;;;1.86;73.52;99378.333333333;;;;
2024/03/19 19:52:22;;;;;;;20.1;10.5;;;;;;;1.72;74.38;99378.333333333;;;;
2024/03/19 20:02:22;;;;;;;20.1;10.5;;;;;;;1.6;74.46;99380;;;;
2024/03/19 20:12:22;;;;;;;34.4;16.5;;;;;;;1.46;75.7;99378.333333333;;;;
2024/03/19 20:22:22;;;;;;;34.4;16.5;;;;;;;1.31;75.7;99378.333333333;;;;
2024/03/19 20:33:22;;;;;;;34.4;16.5;;;;;;;1.14;76.16;99380;;;;
2024/03/19 20:43:22;;;;;;;34;17.6;;;;;;;0.95;78.23;99381.666666667;;;;
2024/03/19 20:54:22;;;;;;;34;17.6;;;;;;;0.85;78.37;99388.333333333;;;;
2024/03/19 21:04:22;;;;;;;34;17.6;;;;;;;0.64;77.63;99385;;;;
2024/03/19 21:15:22;;;;;;;23;13.7;;;;;;;0.47;77.6;99388.333333333;;;;
2024/03/19 21:25:22;;;;;;;23;13.7;;;;;;;0.37;78.27;99383.333333333;;;;
2024/03/19 21:35:22;;;;;;;23;13.7;;;;;;;0.24;78.47;99378.333333333;;;;
2024/03/19 21:46:22;;;;;;;19.5;10;;;;;;;0.25;79.96;99378.333333333;;;;
2024/03/19 21:56:22;;;;;;;19.5;10;;;;;;;0.27;80.64;99370;;;;
2024/03/19 22:06:22;;;;;;;20.1;9.4;;;;;;;0.14;80.29;99368.333333333;;;;
2024/03/19 22:16:22;;;;;;;20.1;9.4;;;;;;;0.03;80.49;99368.333333333;;;;
2024/03/19 22:27:22;;;;;;;20.1;9.4;;;;;;;-0.13;80.33;99360;;;;
2024/03/19 22:37:22;;;;;;;22.3;10.7;;;;;;;-0.23;80.56;99366.666666667;;;;
2024/03/19 22:47:22;;;;;;;22.3;10.7;;;;;;;-0.29;81.56;99366.666666667;;;;
2024/03/19 22:57:22;;;;;;;22.3;10.7;;;;;;;-0.41;81.61;99363.333333333;;;;
2024/03/19 23:07:22;;;;;;;19.8;12.7;;;;;;;-0.53;81.63;99370;;;;
2024/03/19 23:17:22;;;;;;;19.8;12.7;;;;;;;-0.61;81.85;99366.666666667;;;;
2024/03/19 23:27:22;;;;;;;19.8;12.7;;;;;;;-0.72;82.51;99375;;;;
2024/03/19 23:38:22;;;;;;;22.4;14.6;;;;;;;-0.78;83.2;99366.666666667;;;;
2024/03/19 23:48:22;;;;;;;22.4;14.6;;;;;;;-0.86;83.31;99358.333333333;;;;
2024/03/19 23:59:22;;;;;;;22.4;14.6;;;;;;;-0.93;83.4;99348.333333333;;;;
